Time;durP1;ratioP1;P1;durP2;ratioP2;P2;SDS_P1;SDS_P2;PMS_P1;PMS_P2;Temp;Humidity;BMP_temperature;BMP_pressure;BME280_temperature;BME280_humidity;BME280_pressure;Samples;Min_cycle;Max_cycle;Signal;HPM_P1;HPM_P2
2023/11/10 00:01:50;;;;;;;6.85;1.80;;;;;;;7.38;100.00;99567.00;4872076;29;19967;-74
2023/11/10 00:04:16;;;;;;;10.43;1.48;;;;;;;7.36;100.00;99553.16;4896562;29;20037;-75
2023/11/10 00:06:43;;;;;;;5.45;1.63;;;;;;;7.33;100.00;99559.03;4865135;29;20037;-79
2023/11/10 00:09:09;;;;;;;6.72;2.15;;;;;;;7.31;100.00;99558.50;4862440;29;20124;-75
2023/11/10 00:11:38;;;;;;;5.57;1.48;;;;;;;7.30;100.00;99548.94;4886536;29;20041;-75
2023/11/10 00:14:04;;;;;;;3.65;1.73;;;;;;;7.28;100.00;99548.41;4901016;29;20040;-75
2023/11/10 00:16:31;;;;;;;6.28;1.77;;;;;;;7.28;100.00;99544.97;4871490;29;20056;-75
2023/11/10 00:18:58;;;;;;;5.72;1.98;;;;;;;7.26;100.00;99555.91;4885635;29;20041;-75
2023/11/10 00:21:23;;;;;;;5.53;1.98;;;;;;;7.24;100.00;99543.91;4897296;29;20056;-75
2023/11/10 00:23:50;;;;;;;7.97;1.90;;;;;;;7.22;100.00;99544.19;4886655;29;20041;-75
2023/11/10 00:26:20;;;;;;;8.75;2.60;;;;;;;7.18;100.00;99556.50;4885241;29;20067;-74
2023/11/10 00:28:46;;;;;;;6.05;1.45;;;;;;;7.15;100.00;99534.94;4889094;29;20056;-74
2023/11/10 00:31:13;;;;;;;6.70;1.90;;;;;;;7.15;100.00;99553.56;4893954;29;20040;-74
2023/11/10 00:33:39;;;;;;;5.88;1.88;;;;;;;7.15;100.00;99554.34;4871889;29;20040;-75
2023/11/10 00:36:06;;;;;;;7.47;2.10;;;;;;;7.14;100.00;99550.09;4871574;29;20063;-75
2023/11/10 00:38:31;;;;;;;3.92;1.75;;;;;;;7.11;100.00;99550.63;4887003;29;20186;-74
2023/11/10 00:40:57;;;;;;;6.22;1.90;;;;;;;7.11;100.00;99561.28;4876915;29;20119;-74
2023/11/10 00:43:26;;;;;;;5.85;1.98;;;;;;;7.11;100.00;99563.94;4881179;29;20044;-74
2023/11/10 00:45:53;;;;;;;4.50;1.48;;;;;;;7.05;100.00;99551.78;4894773;29;20048;-75
2023/11/10 00:48:20;;;;;;;5.03;2.38;;;;;;;7.04;100.00;99555.47;4893647;29;20037;-75
2023/11/10 00:50:46;;;;;;;4.60;1.83;;;;;;;7.02;100.00;99568.28;4904534;29;20048;-74
2023/11/10 00:53:11;;;;;;;4.55;1.73;;;;;;;7.03;100.00;99572.53;4870093;29;20040;-74
2023/11/10 00:55:38;;;;;;;4.25;1.33;;;;;;;6.99;100.00;99561.66;4892805;29;20047;-75
2023/11/10 00:58:04;;;;;;;3.20;1.35;;;;;;;6.97;100.00;99573.63;4862021;29;20084;-72
2023/11/10 01:00:30;;;;;;;3.42;1.20;;;;;;;6.97;100.00;99570.94;4876053;29;20041;-73
2023/11/10 01:02:56;;;;;;;3.75;0.93;;;;;;;6.89;100.00;99574.19;4899380;29;20044;-74
2023/11/10 01:05:22;;;;;;;3.15;0.73;;;;;;;6.88;100.00;99581.38;4876099;29;20491;-74
2023/11/10 01:07:50;;;;;;;2.08;0.70;;;;;;;6.86;100.00;99577.41;4879927;29;20135;-73
2023/11/10 01:10:16;;;;;;;2.15;1.10;;;;;;;6.82;100.00;99585.94;4900345;29;20040;-75
2023/11/10 01:12:42;;;;;;;2.25;0.80;;;;;;;6.80;100.00;99588.06;4903596;29;20039;-74
2023/11/10 01:15:11;;;;;;;2.08;1.13;;;;;;;6.78;100.00;99579.56;4876773;29;20774;-74
2023/11/10 01:17:39;;;;;;;2.78;0.73;;;;;;;6.77;100.00;99583.31;4890845;29;20044;-74
2023/11/10 01:20:10;;;;;;;3.03;1.02;;;;;;;6.73;100.00;99584.91;4902884;29;20052;-73
2023/11/10 01:22:42;;;;;;;1.15;0.55;;;;;;;6.71;100.00;99575.63;4891350;29;20116;-75
2023/11/10 01:25:08;;;;;;;2.40;1.02;;;;;;;6.68;100.00;99586.78;4889668;29;20426;-75
2023/11/10 01:27:34;;;;;;;1.88;0.80;;;;;;;6.66;100.00;99584.41;4907346;29;20036;-75
2023/11/10 01:30:00;;;;;;;2.22;0.70;;;;;;;6.66;100.00;99587.06;4855941;29;20043;-75
2023/11/10 01:32:26;;;;;;;1.58;0.70;;;;;;;6.65;100.00;99584.69;4894545;29;20479;-72
2023/11/10 01:34:54;;;;;;;;;;;;;;;6.65;100.00;99584.69;4897259;29;20127;-73
2023/11/10 01:37:20;;;;;;;2.15;1.13;;;;;;;6.63;100.00;99579.59;4902798;29;19915;-74
2023/11/10 01:39:46;;;;;;;1.85;0.80;;;;;;;6.66;100.00;99589.72;4888477;29;20044;-73
2023/11/10 01:42:13;;;;;;;1.50;1.13;;;;;;;6.64;100.00;99585.72;4889613;29;20096;-75
2023/11/10 01:44:40;;;;;;;2.72;0.88;;;;;;;6.60;100.00;99588.16;4890897;29;20099;-75
2023/11/10 01:47:09;;;;;;;2.85;1.05;;;;;;;6.61;100.00;99583.63;4900343;29;20131;-73
2023/11/10 01:49:35;;;;;;;2.88;0.68;;;;;;;6.58;100.00;99590.28;4889373;29;20850;-72
2023/11/10 01:52:02;;;;;;;1.60;0.60;;;;;;;6.58;100.00;99590.28;4890753;29;20056;-73
2023/11/10 01:54:34;;;;;;;3.80;0.90;;;;;;;6.62;100.00;99579.88;4901898;29;20028;-73
2023/11/10 01:57:01;;;;;;;2.50;1.00;;;;;;;6.58;100.00;99584.97;4868639;29;20044;-75
2023/11/10 01:59:28;;;;;;;2.97;0.80;;;;;;;6.59;100.00;99580.44;4887600;29;20045;-74
2023/11/10 02:01:54;;;;;;;3.22;0.90;;;;;;;6.59;100.00;99569.81;4889894;29;20064;-74
2023/11/10 02:04:20;;;;;;;2.10;1.20;;;;;;;6.61;100.00;99565.78;4872507;29;20457;-74
2023/11/10 02:06:47;;;;;;;1.48;0.85;;;;;;;6.60;100.00;99564.19;4903218;29;20067;-74
2023/11/10 02:09:13;;;;;;;3.58;1.40;;;;;;;6.61;100.00;99565.78;4901986;29;20486;-74
2023/11/10 02:11:39;;;;;;;;;;;;;;;6.62;100.00;99564.72;4878492;29;20443;-74
2023/11/10 02:14:09;;;;;;;3.53;1.30;;;;;;;6.62;100.00;99556.75;4903399;29;19966;-74
2023/11/10 02:16:36;;;;;;;3.03;1.15;;;;;;;6.63;100.00;99554.88;4888074;29;20495;-74
2023/11/10 02:19:05;;;;;;;3.50;1.08;;;;;;;6.60;100.00;99556.22;4887250;29;20044;-76
2023/11/10 02:21:32;;;;;;;4.40;1.50;;;;;;;6.61;100.00;99559.69;4870356;29;21546;-74
2023/11/10 02:24:02;;;;;;;2.20;1.08;;;;;;;6.62;100.00;99563.94;4903119;29;20064;-73
2023/11/10 02:26:27;;;;;;;2.17;1.20;;;;;;;6.64;100.00;99551.13;4877261;29;20044;-74
2023/11/10 02:28:54;;;;;;;4.60;1.30;;;;;;;6.65;100.00;99558.88;4885284;29;20061;-75
2023/11/10 02:31:20;;;;;;;2.28;1.83;;;;;;;6.64;100.00;99557.28;4883680;29;20083;-74
2023/11/10 02:33:46;;;;;;;4.00;1.40;;;;;;;6.66;100.00;99559.66;4880627;29;20064;-75
2023/11/10 02:36:12;;;;;;;;;;;;;;;6.64;100.00;99554.63;4899668;29;20180;-76
2023/11/10 02:38:38;;;;;;;2.55;1.60;;;;;;;6.63;100.00;99545.03;4904772;29;20649;-75
2023/11/10 02:41:05;;;;;;;;;;;;;;;6.62;100.00;99556.75;4891420;29;20043;-75
2023/11/10 02:43:34;;;;;;;2.17;1.40;;;;;;;6.58;100.00;99561.03;4890037;29;19923;-74
2023/11/10 02:46:01;;;;;;;5.35;1.60;;;;;;;6.58;100.00;99569.00;4905108;29;20040;-75
2023/11/10 02:48:28;;;;;;;4.15;1.77;;;;;;;6.57;100.00;99572.75;4886187;29;20048;-76
2023/11/10 02:50:55;;;;;;;2.42;1.58;;;;;;;6.54;100.00;99574.06;4877569;29;20036;-76
2023/11/10 02:53:21;;;;;;;;;;;;;;;6.57;100.00;99570.09;4871023;29;20029;-74
2023/11/10 02:55:47;;;;;;;2.78;1.80;;;;;;;6.58;100.00;99574.34;4903657;29;19931;-73
2023/11/10 02:58:13;;;;;;;5.43;2.28;;;;;;;6.59;100.00;99567.94;4871486;29;20043;-75
2023/11/10 03:00:39;;;;;;;4.70;1.55;;;;;;;6.59;100.00;99565.28;4872074;29;20048;-74
2023/11/10 03:03:05;;;;;;;5.05;1.63;;;;;;;6.59;100.00;99565.28;4886341;29;20032;-74
2023/11/10 03:05:33;;;;;;;5.35;1.65;;;;;;;6.62;100.00;99555.94;4901502;29;20839;-73
2023/11/10 03:07:58;;;;;;;4.70;1.83;;;;;;;6.62;100.00;99561.25;4873788;29;20033;-74
2023/11/10 03:10:25;;;;;;;5.05;2.50;;;;;;;6.62;100.00;99563.94;4888838;29;20092;-75
2023/11/10 03:12:51;;;;;;;3.70;1.80;;;;;;;6.63;100.00;99555.66;4858680;29;20051;-74
2023/11/10 03:15:17;;;;;;;3.90;2.10;;;;;;;6.65;100.00;99558.88;4900779;29;20559;-75
2023/11/10 03:17:44;;;;;;;;;;;;;;;6.68;100.00;99549.53;4903575;29;20103;-75
2023/11/10 03:20:10;;;;;;;4.05;2.40;;;;;;;6.69;100.00;99549.25;4885314;29;19997;-74
2023/11/10 03:22:36;;;;;;;5.18;2.78;;;;;;;6.70;100.00;99555.38;4885877;29;20044;-76
2023/11/10 03:25:02;;;;;;;4.88;2.78;;;;;;;6.70;100.00;99550.06;4888963;29;20399;-74
2023/11/10 03:27:28;;;;;;;6.60;3.22;;;;;;;6.71;100.00;99552.47;4892763;29;20064;-75
2023/11/10 03:29:53;;;;;;;4.45;2.70;;;;;;;6.75;100.00;99552.69;4901558;29;20056;-75
2023/11/10 03:32:21;;;;;;;4.15;2.85;;;;;;;6.75;100.00;99558.81;4864728;29;20048;-74
2023/11/10 03:34:47;;;;;;;3.65;2.88;;;;;;;6.78;100.00;99552.97;4868648;29;20120;-75
2023/11/10 03:37:13;;;;;;;5.28;2.88;;;;;;;6.79;100.00;99549.22;4891548;29;20029;-74
2023/11/10 03:39:40;;;;;;;4.00;2.75;;;;;;;6.80;100.00;99552.69;4885662;29;20426;-73
2023/11/10 03:42:07;;;;;;;4.68;2.70;;;;;;;6.81;100.00;99552.41;4902449;29;20036;-74
2023/11/10 03:44:34;;;;;;;3.63;3.00;;;;;;;6.81;100.00;99543.63;4873764;29;20036;-73
2023/11/10 03:47:00;;;;;;;4.22;3.35;;;;;;;6.82;100.00;99543.34;4885976;29;20068;-73
2023/11/10 03:49:26;;;;;;;6.38;3.20;;;;;;;6.83;100.00;99549.47;4884488;29;20581;-73
2023/11/10 03:51:53;;;;;;;5.93;3.03;;;;;;;6.83;100.00;99544.16;4889494;29;20036;-74
2023/11/10 03:54:18;;;;;;;7.18;4.00;;;;;;;6.83;100.00;99544.16;4882441;29;20029;-73
2023/11/10 03:56:45;;;;;;;4.72;3.38;;;;;;;6.82;100.00;99538.03;4887899;29;20047;-75
2023/11/10 03:59:11;;;;;;;4.55;3.80;;;;;;;6.81;100.00;99539.09;4870213;29;20036;-74
2023/11/10 04:01:37;;;;;;;8.05;3.35;;;;;;;6.79;100.00;99535.13;4886871;29;20036;-74
2023/11/10 04:04:03;;;;;;;5.50;3.88;;;;;;;6.74;100.00;99530.63;4885131;29;20039;-74
2023/11/10 04:06:30;;;;;;;7.05;4.53;;;;;;;6.73;100.00;99534.34;4883753;29;20152;-74
2023/11/10 04:08:56;;;;;;;5.55;4.05;;;;;;;6.70;100.00;99532.22;4886830;29;20127;-73
2023/11/10 04:11:22;;;;;;;7.28;3.95;;;;;;;6.70;100.00;99540.19;4886258;29;20885;-74
2023/11/10 04:13:48;;;;;;;5.68;3.28;;;;;;;6.67;100.00;99532.78;4890216;29;20040;-73
2023/11/10 04:16:20;;;;;;;7.45;3.30;;;;;;;6.66;100.00;99536.50;4902101;29;20326;-75
2023/11/10 04:18:53;;;;;;;5.07;3.80;;;;;;;6.62;100.00;99548.75;4879075;29;20044;-73
2023/11/10 04:21:22;;;;;;;6.53;3.83;;;;;;;6.60;100.00;99545.59;4888007;29;20119;-73
2023/11/10 04:23:51;;;;;;;5.70;3.53;;;;;;;6.60;100.00;99547.44;4880081;29;20039;-74
2023/11/10 04:26:17;;;;;;;7.03;3.42;;;;;;;6.58;100.00;99555.72;4901212;29;20036;-74
2023/11/10 04:28:47;;;;;;;6.22;3.42;;;;;;;6.56;100.00;99537.34;4904342;29;20040;-73
2023/11/10 04:31:17;;;;;;;5.25;3.83;;;;;;;6.55;100.00;99532.28;4894114;29;20040;-74
2023/11/10 04:33:44;;;;;;;6.30;3.60;;;;;;;6.55;100.00;99534.94;4891270;29;20459;-74
2023/11/10 04:36:12;;;;;;;6.93;3.53;;;;;;;6.53;100.00;99539.75;4893696;29;20032;-74
2023/11/10 04:38:47;;;;;;;5.07;3.50;;;;;;;6.51;100.00;99536.59;4883255;29;20068;-73
2023/11/10 04:41:15;;;;;;;5.38;3.15;;;;;;;6.52;100.00;99522.22;4885688;29;20036;-74
2023/11/10 04:43:41;;;;;;;4.60;3.35;;;;;;;6.52;100.00;99528.31;4871758;29;20100;-73
2023/11/10 04:46:06;;;;;;;3.85;2.90;;;;;;;6.52;100.00;99527.53;4902543;29;20042;-73
2023/11/10 04:48:32;;;;;;;5.65;3.95;;;;;;;6.52;100.00;99527.53;4905556;29;20040;-73
2023/11/10 04:50:58;;;;;;;5.88;2.97;;;;;;;6.52;100.00;99530.19;4889284;29;20036;-74
2023/11/10 04:53:23;;;;;;;5.18;3.17;;;;;;;6.51;100.00;99529.41;4886663;29;20040;-74
2023/11/10 04:55:49;;;;;;;5.38;3.05;;;;;;;6.54;100.00;99528.84;4889286;29;20349;-75
2023/11/10 04:58:15;;;;;;;4.15;3.15;;;;;;;6.53;100.00;99532.56;4891345;29;20036;-75
2023/11/10 05:00:40;;;;;;;3.95;2.90;;;;;;;6.53;100.00;99545.06;4885805;29;20139;-74
2023/11/10 05:03:07;;;;;;;4.95;2.90;;;;;;;6.53;100.00;99540.56;4904627;29;20088;-74
2023/11/10 05:05:34;;;;;;;4.60;3.33;;;;;;;6.53;100.00;99537.91;4905595;29;20507;-75
2023/11/10 05:08:02;;;;;;;4.43;2.60;;;;;;;6.53;100.00;99537.91;4894023;29;20036;-75
2023/11/10 05:10:29;;;;;;;3.42;3.00;;;;;;;6.54;100.00;99544.81;4887511;29;20047;-76
2023/11/10 05:12:55;;;;;;;4.57;3.10;;;;;;;6.54;100.00;99542.13;4902894;29;20447;-75
2023/11/10 05:15:22;;;;;;;5.00;3.20;;;;;;;6.51;100.00;99540.03;4906369;29;20036;-73
2023/11/10 05:17:50;;;;;;;5.47;2.67;;;;;;;6.52;100.00;99544.28;4887095;29;20052;-74
2023/11/10 05:20:16;;;;;;;;;;;;;;;6.53;100.00;99537.09;4891353;29;20111;-75
2023/11/10 05:22:43;;;;;;;5.93;2.83;;;;;;;6.54;100.00;99552.00;4874784;29;20398;-75
2023/11/10 05:25:10;;;;;;;4.07;2.38;;;;;;;6.54;100.00;99546.66;4877473;29;20131;-75
2023/11/10 05:27:38;;;;;;;5.43;3.03;;;;;;;6.53;100.00;99551.19;4881884;29;20530;-75
2023/11/10 05:30:05;;;;;;;5.97;2.63;;;;;;;6.53;100.00;99559.16;4868016;29;20455;-74
2023/11/10 05:32:31;;;;;;;3.35;2.60;;;;;;;6.54;100.00;99552.00;4884299;29;20040;-75
2023/11/10 05:34:58;;;;;;;4.28;2.88;;;;;;;6.53;100.00;99547.75;4900457;29;20036;-75
2023/11/10 05:37:28;;;;;;;4.95;3.00;;;;;;;6.55;100.00;99556.22;4886555;29;20072;-74
2023/11/10 05:39:54;;;;;;;4.43;2.42;;;;;;;6.55;100.00;99554.38;4875245;29;20123;-75
2023/11/10 05:42:21;;;;;;;7.20;2.80;;;;;;;6.56;100.00;99560.47;4888393;29;20076;-75
2023/11/10 05:44:47;;;;;;;5.75;2.10;;;;;;;6.56;100.00;99563.16;4895719;29;20052;-76
2023/11/10 05:47:12;;;;;;;5.63;2.53;;;;;;;6.57;100.00;99562.09;4901972;29;20088;-76
2023/11/10 05:49:39;;;;;;;4.95;2.35;;;;;;;6.57;100.00;99562.09;4902001;29;20086;-75
2023/11/10 05:52:05;;;;;;;7.18;2.00;;;;;;;6.56;100.00;99571.91;4895869;29;20039;-76
2023/11/10 05:54:31;;;;;;;5.63;2.45;;;;;;;6.56;100.00;99579.09;4870530;29;20045;-75
2023/11/10 05:56:57;;;;;;;5.72;2.33;;;;;;;6.57;100.00;99576.19;4887011;29;20048;-75
2023/11/10 05:59:25;;;;;;;5.25;2.40;;;;;;;6.59;100.00;99570.59;4890010;29;20184;-75
2023/11/10 06:01:54;;;;;;;3.70;2.10;;;;;;;6.57;100.00;99564.75;4874509;29;20128;-75
2023/11/10 06:04:20;;;;;;;5.50;2.40;;;;;;;6.59;100.00;99575.13;4887036;29;20566;-75
2023/11/10 06:06:46;;;;;;;;;;;;;;;6.59;100.00;99575.91;4888292;29;20047;-74
2023/11/10 06:09:13;;;;;;;3.63;1.75;;;;;;;6.57;100.00;99562.09;4891469;29;19919;-74
2023/11/10 06:11:38;;;;;;;3.92;2.00;;;;;;;6.57;100.00;99564.75;4882265;29;20558;-75
2023/11/10 06:14:05;;;;;;;4.38;1.48;;;;;;;6.56;100.00;99568.47;4875584;29;20033;-76
2023/11/10 06:16:32;;;;;;;5.75;2.08;;;;;;;6.57;100.00;99568.22;4905173;29;20108;-74
2023/11/10 06:18:58;;;;;;;3.13;1.55;;;;;;;6.58;100.00;99571.66;4857754;29;20068;-73
2023/11/10 06:21:24;;;;;;;3.38;1.77;;;;;;;6.57;100.00;99572.75;4885174;29;20064;-74
2023/11/10 06:23:50;;;;;;;5.30;1.52;;;;;;;6.53;100.00;99567.16;4887374;29;20124;-75
2023/11/10 06:26:18;;;;;;;2.97;1.85;;;;;;;6.58;100.00;99569.00;4885735;29;20078;-75
2023/11/10 06:28:46;;;;;;;18.23;2.35;;;;;;;6.56;100.00;99565.81;4873116;29;20051;-74
2023/11/10 06:31:14;;;;;;;3.75;1.58;;;;;;;6.56;100.00;99571.91;4884588;29;20051;-76
2023/11/10 06:33:44;;;;;;;5.22;1.80;;;;;;;6.59;100.00;99569.81;4877234;29;20526;-75
2023/11/10 06:36:10;;;;;;;4.70;1.95;;;;;;;6.58;100.00;99571.66;4886948;29;20029;-73
2023/11/10 06:38:36;;;;;;;3.25;1.60;;;;;;;6.59;100.00;99575.91;4888875;29;20040;-74
2023/11/10 06:41:02;;;;;;;7.47;1.95;;;;;;;6.58;100.00;99574.34;4902191;29;20064;-75
2023/11/10 06:43:28;;;;;;;4.45;1.92;;;;;;;6.60;100.00;99576.72;4886862;29;20056;-74
2023/11/10 06:45:55;;;;;;;2.30;1.50;;;;;;;6.57;100.00;99584.19;4886746;29;20467;-73
2023/11/10 06:48:21;;;;;;;5.72;1.70;;;;;;;6.57;100.00;99592.16;4886457;29;20040;-73
2023/11/10 06:50:46;;;;;;;;;;;;;;;6.56;100.00;99590.53;4904046;29;20037;-75
2023/11/10 06:53:12;;;;;;;3.33;1.58;;;;;;;6.56;100.00;99585.22;4903996;29;20002;-76
2023/11/10 06:55:39;;;;;;;5.35;1.98;;;;;;;6.56;100.00;99589.75;4887140;29;20037;-74
2023/11/10 06:58:10;;;;;;;6.15;1.30;;;;;;;6.55;100.00;99580.16;4889487;29;20144;-74
2023/11/10 07:00:37;;;;;;;6.28;1.88;;;;;;;6.53;100.00;99584.97;4885499;29;20076;-74
2023/11/10 07:03:11;;;;;;;6.00;1.15;;;;;;;6.53;100.00;99587.63;4857868;29;20100;-73
2023/11/10 07:05:37;;;;;;;2.55;1.60;;;;;;;6.53;100.00;99592.97;4856102;29;20074;-75
2023/11/10 07:08:09;;;;;;;4.07;1.65;;;;;;;6.52;100.00;99591.38;4880649;29;20131;-75
2023/11/10 07:10:43;;;;;;;6.55;1.55;;;;;;;6.50;100.00;99578.34;4886114;29;20826;-75
2023/11/10 07:13:10;;;;;;;3.55;1.40;;;;;;;6.48;100.00;99585.00;4870217;29;20033;-73
2023/11/10 07:15:35;;;;;;;3.50;1.40;;;;;;;6.45;100.00;99585.53;4901163;29;20036;-75
2023/11/10 07:18:02;;;;;;;6.43;1.23;;;;;;;6.42;100.00;99581.53;4889213;29;20242;-73
2023/11/10 07:20:30;;;;;;;4.72;1.38;;;;;;;6.38;100.00;99580.50;4878256;29;20033;-74
2023/11/10 07:22:58;;;;;;;5.53;1.40;;;;;;;6.35;100.00;99577.56;4902186;29;20110;-74
2023/11/10 07:25:28;;;;;;;2.03;0.93;;;;;;;6.31;100.00;99580.00;4873685;29;20068;-74
2023/11/10 07:27:55;;;;;;;2.25;1.05;;;;;;;6.28;100.00;99586.63;4890164;29;20040;-73
2023/11/10 07:30:23;;;;;;;4.30;1.55;;;;;;;6.19;100.00;99580.28;4899782;29;20518;-74
2023/11/10 07:32:50;;;;;;;3.25;1.23;;;;;;;6.19;100.00;99587.44;4886869;29;20092;-72
2023/11/10 07:35:16;;;;;;;4.03;1.20;;;;;;;6.19;100.00;99598.88;4872036;29;20550;-75
2023/11/10 07:37:44;;;;;;;3.28;1.35;;;;;;;6.19;100.00;99593.56;4875544;29;20040;-74
2023/11/10 07:40:14;;;;;;;3.95;1.17;;;;;;;6.19;100.00;99592.78;4889594;29;20036;-74
2023/11/10 07:42:44;;;;;;;4.07;1.30;;;;;;;6.18;100.00;99591.19;4885268;29;20067;-74
2023/11/10 07:45:14;;;;;;;3.92;0.90;;;;;;;6.16;100.00;99594.09;4887898;29;20040;-74
2023/11/10 07:47:43;;;;;;;3.58;1.40;;;;;;;6.16;100.00;99594.09;4870479;29;20045;-74
2023/11/10 07:50:10;;;;;;;8.38;1.42;;;;;;;6.18;100.00;99605.25;4860096;29;20169;-73
2023/11/10 07:52:39;;;;;;;5.15;1.45;;;;;;;6.22;100.00;99603.66;4870813;29;20131;-75
2023/11/10 07:55:06;;;;;;;6.30;1.83;;;;;;;6.24;100.00;99606.84;4888527;29;20037;-73
2023/11/10 07:57:32;;;;;;;5.90;1.33;;;;;;;6.24;100.00;99606.84;4857560;29;20058;-75
2023/11/10 07:59:59;;;;;;;4.28;1.08;;;;;;;6.29;100.00;99604.16;4884125;29;20025;-74
2023/11/10 08:02:24;;;;;;;4.25;0.95;;;;;;;6.32;100.00;99600.19;4888257;29;20039;-74
2023/11/10 08:04:52;;;;;;;3.33;1.40;;;;;;;6.35;100.00;99598.84;4887358;29;20056;-72
2023/11/10 08:07:19;;;;;;;4.22;1.02;;;;;;;6.39;100.00;99597.25;4897383;29;20044;-73
2023/11/10 08:09:46;;;;;;;2.90;1.30;;;;;;;6.40;100.00;99593.53;4885488;29;20092;-74
2023/11/10 08:12:12;;;;;;;1.88;0.90;;;;;;;6.43;100.00;99595.63;4889521;29;20138;-72
2023/11/10 08:14:38;;;;;;;3.30;1.05;;;;;;;6.46;100.00;99597.75;4867888;29;20041;-75
2023/11/10 08:17:06;;;;;;;3.67;1.38;;;;;;;6.48;100.00;99592.97;4894897;29;20060;-74
2023/11/10 08:19:33;;;;;;;4.65;1.15;;;;;;;6.49;100.00;99599.88;4870994;29;20443;-74
2023/11/10 08:22:00;;;;;;;6.15;0.90;;;;;;;6.52;100.00;99604.66;4890571;29;20037;-77
2023/11/10 08:24:27;;;;;;;3.10;1.02;;;;;;;6.51;100.00;99605.75;4890007;29;20653;-80
2023/11/10 08:26:56;;;;;;;4.25;1.17;;;;;;;6.52;100.00;99608.13;4852786;29;20412;-76
2023/11/10 08:29:21;;;;;;;6.10;1.10;;;;;;;6.54;100.00;99605.19;4897160;29;20068;-76
2023/11/10 08:31:49;;;;;;;1.63;1.20;;;;;;;6.55;100.00;99599.59;4887972;29;20105;-77
2023/11/10 08:34:16;;;;;;;1.92;0.82;;;;;;;6.56;100.00;99608.38;4874683;29;20064;-77
2023/11/10 08:36:42;;;;;;;3.75;1.40;;;;;;;6.59;100.00;99607.03;4904858;29;20443;-75
2023/11/10 08:39:08;;;;;;;3.70;0.90;;;;;;;6.61;100.00;99604.91;4887240;29;20629;-75
2023/11/10 08:41:34;;;;;;;4.53;1.20;;;;;;;6.63;100.00;99608.88;4886086;29;20036;-77
2023/11/10 08:44:02;;;;;;;2.90;0.98;;;;;;;6.66;100.00;99613.66;4890560;29;20033;-75
2023/11/10 08:46:27;;;;;;;4.93;1.10;;;;;;;6.69;100.00;99607.78;4882326;29;20422;-74
2023/11/10 08:48:53;;;;;;;6.63;1.25;;;;;;;6.70;100.00;99614.69;4893325;29;20047;-75
2023/11/10 08:51:19;;;;;;;3.17;1.00;;;;;;;6.72;100.00;99617.91;4884291;29;20076;-74
2023/11/10 08:53:45;;;;;;;8.95;2.25;;;;;;;6.75;100.00;99616.56;4885303;29;20049;-76
2023/11/10 08:56:11;;;;;;;3.00;1.00;;;;;;;6.75;100.00;99616.56;4867155;29;20032;-74
2023/11/10 08:58:37;;;;;;;;;;;;;;;6.75;100.00;99614.69;4872642;29;20048;-74
2023/11/10 09:01:02;;;;;;;3.63;1.08;;;;;;;6.78;100.00;99616.81;4866406;29;19942;-74
2023/11/10 09:03:28;;;;;;;4.63;1.40;;;;;;;6.80;100.00;99612.03;4868106;29;20052;-72
2023/11/10 09:05:53;;;;;;;4.90;0.98;;;;;;;6.91;100.00;99611.97;4883680;29;20072;-73
2023/11/10 09:08:19;;;;;;;2.83;1.17;;;;;;;7.06;100.00;99622.56;4901371;29;20753;-72
2023/11/10 09:10:45;;;;;;;3.50;1.20;;;;;;;7.11;100.00;99619.88;4887988;29;20040;-72
2023/11/10 09:13:11;;;;;;;1.95;0.98;;;;;;;7.13;100.00;99615.09;4891546;29;20118;-72
2023/11/10 09:15:37;;;;;;;3.58;1.17;;;;;;;7.13;100.00;99619.63;4855112;29;20045;-71
2023/11/10 09:18:03;;;;;;;5.57;1.10;;;;;;;7.16;100.00;99614.53;4873050;29;20519;-72
2023/11/10 09:20:29;;;;;;;2.88;0.82;;;;;;;7.21;100.00;99619.81;4891409;29;20059;-73
2023/11/10 09:23:03;;;;;;;5.30;1.25;;;;;;;7.23;100.00;99614.22;4886045;29;20029;-71
2023/11/10 09:25:29;;;;;;;3.70;1.10;;;;;;;7.26;100.00;99614.47;4873248;29;20049;-73
2023/11/10 09:27:56;;;;;;;4.00;1.10;;;;;;;7.26;100.00;99627.00;4891966;29;20514;-72
2023/11/10 09:30:24;;;;;;;4.25;1.20;;;;;;;7.30;100.00;99623.50;4888189;29;20044;-73
2023/11/10 09:32:51;;;;;;;6.78;1.42;;;;;;;7.33;100.00;99624.84;4885132;29;20047;-72
2023/11/10 09:35:16;;;;;;;;;;;;;;;7.37;100.00;99618.66;4890128;29;20043;-73
2023/11/10 09:37:46;;;;;;;4.32;1.77;;;;;;;7.40;100.00;99622.66;4905373;29;19919;-73
2023/11/10 09:40:13;;;;;;;4.38;1.20;;;;;;;7.42;100.00;99630.38;4897716;29;20463;-72
2023/11/10 09:42:39;;;;;;;4.18;1.85;;;;;;;7.43;100.00;99631.97;4903790;29;20465;-73
2023/11/10 09:45:05;;;;;;;3.42;1.08;;;;;;;7.44;100.00;99636.22;4870865;29;20040;-72
2023/11/10 09:47:32;;;;;;;;;;;;;;;7.51;100.00;99634.03;4871052;29;20405;-73
2023/11/10 09:49:59;;;;;;;2.33;1.08;;;;;;;7.53;100.00;99631.91;4904049;29;19919;-73
2023/11/10 09:52:27;;;;;;;3.70;1.20;;;;;;;7.59;100.00;99628.16;4901529;29;20551;-72
2023/11/10 09:54:54;;;;;;;3.50;1.33;;;;;;;7.59;100.00;99644.13;4889548;29;20033;-73
2023/11/10 09:57:25;;;;;;;3.90;1.35;;;;;;;7.54;100.00;99639.63;4871846;29;20062;-73
2023/11/10 09:59:52;;;;;;;2.65;1.63;;;;;;;7.54;100.00;99639.63;4871169;29;20513;-73
2023/11/10 10:02:18;;;;;;;2.88;1.40;;;;;;;7.54;100.00;99641.50;4885959;29;20119;-73
2023/11/10 10:04:45;;;;;;;2.97;1.70;;;;;;;7.50;100.00;99635.91;4887222;29;20123;-72
2023/11/10 10:07:12;;;;;;;4.32;1.70;;;;;;;7.53;100.00;99631.91;4875483;29;20029;-73
2023/11/10 10:09:38;;;;;;;3.95;1.42;;;;;;;7.54;100.00;99641.50;4880776;29;20128;-72
2023/11/10 10:12:05;;;;;;;4.03;1.52;;;;;;;7.56;100.00;99639.34;4889930;29;20111;-73
2023/11/10 10:14:31;;;;;;;4.60;1.20;;;;;;;7.55;100.00;99641.22;4892582;29;20040;-73
2023/11/10 10:16:57;;;;;;;3.15;1.50;;;;;;;7.54;100.00;99646.81;4887555;29;20040;-73
2023/11/10 10:19:24;;;;;;;2.15;1.02;;;;;;;7.60;100.00;99645.72;4890729;29;20047;-72
2023/11/10 10:21:50;;;;;;;3.53;1.40;;;;;;;7.59;100.00;99646.78;4889325;29;20043;-73
2023/11/10 10:24:16;;;;;;;2.80;1.20;;;;;;;7.57;100.00;99648.91;4891736;29;20024;-73
2023/11/10 10:26:44;;;;;;;4.13;1.50;;;;;;;7.59;100.00;99652.91;4888378;29;20036;-73
2023/11/10 10:29:12;;;;;;;3.13;1.55;;;;;;;7.59;100.00;99642.25;4883830;29;20120;-73
2023/11/10 10:31:38;;;;;;;4.68;1.58;;;;;;;7.61;100.00;99649.97;4886405;29;20774;-73
2023/11/10 10:34:05;;;;;;;2.78;1.13;;;;;;;7.63;100.00;99650.47;4889094;29;20052;-74
2023/11/10 10:36:38;;;;;;;4.30;1.55;;;;;;;7.62;100.00;99651.56;4871363;29;20037;-73
2023/11/10 10:39:12;;;;;;;4.13;1.40;;;;;;;7.62;100.00;99646.22;4882658;29;20120;-73
2023/11/10 10:41:42;;;;;;;5.68;1.30;;;;;;;7.62;100.00;99640.91;4885676;29;20040;-73
2023/11/10 10:44:08;;;;;;;3.35;1.30;;;;;;;7.62;100.00;99640.91;4886148;29;20040;-73
2023/11/10 10:46:36;;;;;;;5.47;1.58;;;;;;;7.63;100.00;99645.94;4889971;29;20040;-73
2023/11/10 10:49:03;;;;;;;4.53;1.50;;;;;;;7.64;100.00;99644.06;4885271;29;20039;-73
2023/11/10 10:51:36;;;;;;;4.38;1.75;;;;;;;7.64;100.00;99639.53;4886893;29;20040;-73
2023/11/10 10:54:07;;;;;;;4.60;1.65;;;;;;;7.70;100.00;99642.97;4907419;29;20056;-73
2023/11/10 10:56:49;;;;;;;5.00;1.77;;;;;;;7.72;100.00;99635.50;4856200;29;20076;-73
2023/11/10 10:59:15;;;;;;;3.75;1.65;;;;;;;7.76;100.00;99630.41;4865414;29;20044;-73
2023/11/10 11:01:49;;;;;;;4.80;1.70;;;;;;;7.77;100.00;99643.47;4870429;29;20517;-73
2023/11/10 11:04:28;;;;;;;4.50;1.77;;;;;;;7.79;100.00;99635.19;4889191;29;20496;-73
2023/11/10 11:07:19;;;;;;;4.07;1.90;;;;;;;7.81;100.00;99639.19;4887647;29;20037;-72
2023/11/10 11:10:07;;;;;;;3.60;1.98;;;;;;;7.81;100.00;99643.72;4881358;29;20044;-73
2023/11/10 11:12:42;;;;;;;3.40;1.77;;;;;;;7.84;100.00;99638.59;4887692;29;20061;-72
2023/11/10 11:15:21;;;;;;;4.43;1.80;;;;;;;7.84;100.00;99635.94;4872817;29;20115;-73
2023/11/10 11:18:10;;;;;;;2.53;1.25;;;;;;;7.86;100.00;99639.16;4902417;29;20043;-73
2023/11/10 11:20:37;;;;;;;3.40;1.13;;;;;;;7.87;100.00;99635.41;4891409;29;20304;-73
2023/11/10 11:23:05;;;;;;;4.93;1.50;;;;;;;7.89;100.00;99624.44;4884314;29;20037;-73
2023/11/10 11:25:32;;;;;;;4.03;1.30;;;;;;;7.90;100.00;99624.16;4889696;29;20041;-73
2023/11/10 11:28:00;;;;;;;3.00;1.88;;;;;;;7.92;100.00;99624.72;4881919;29;20040;-73
2023/11/10 11:30:37;;;;;;;3.28;1.52;;;;;;;7.90;100.00;99626.84;4900494;29;20036;-72
2023/11/10 11:33:06;;;;;;;2.28;1.17;;;;;;;7.92;100.00;99634.53;4886236;29;20041;-72
2023/11/10 11:36:01;;;;;;;4.20;1.50;;;;;;;7.90;100.00;99626.84;4887044;29;20040;-73
2023/11/10 11:38:30;;;;;;;3.25;1.52;;;;;;;7.92;100.00;99627.38;4883357;29;20051;-73